Schenectady, NY (12306)

11:47 AM EST on February 06, 2016 (GMT -0500)
West Hill | | Change Station
CLOSE
Current Station
Personal Weather Station
Location: Schenectady, NY
Elevation: 627 ft
Nearby Weather Stations

Elev 627 ft 42.82 °N, 74.01 °W | Updated 12 seconds ago

Mostly Cloudy
Mostly Cloudy
37.4 °F
Feels Like 33 °F
N
5.4
Wind Variable Wind from SW
Gusts 7.4 mph

Today
High -- | Low -- °F
--% Chance of Precip.
Yesterday
High -- | Low -- °F
Precip. -- in
Pressure 30.30 in
Visibility 10.0 miles
Clouds Clear
Windchill 33 °F
Dew Point 16 °F
Humidity 41%
Rainfall 0.00 in
Snow Depth Not available.
7:05 AM 5:15 PM
Waning Crescent, 5% visible
METAR KSCH 061550Z 17005KT 10SM CLR 02/M07 A3030
Pressure 30.30 in
Visibility 10.0 miles
Clouds Clear
Windchill 33 °F
Dew Point 16 °F
Humidity 41%
Rainfall 0.00 in
Snow Depth Not available.
7:05 AM 5:15 PM
Waning Crescent, 5% visible
METAR KSCH 061550Z 17005KT 10SM CLR 02/M07 A3030

10-Day Weather Forecast

Almanac

Astronomy

Feb. 06, 2016 Rise Set
Actual Time
Civil Twilight
Nautical Twilight
Astronomical Twilight
Moon
Length of Visible Light
Length of Day
Tomorrow will be .
, % of the Moon is Illuminated

Today's Extremes

State Highs State Lows

Community

WunderPhotos

Upload Photos

1,891,017 photos uploaded!

WunderBlog® & News

Nearby

Air Quality

  Air Quality AQ Index Pollutant
Not available.

Snow Depth

Station Depth Elevation

Earthquake Activity

City Distance Mag. Time & Date
Minimum magnitude displayed is 2.5.

Coastal Water Temperatures

Place Temperature

Stations

Nearby Weather Stations

Station Location Temp. Windchill Dew Point Humidity Wind Precip. Elev Updated Type
                   

Watches & Warnings

There are currently no watches in effect.